sensor_id;sensor_type;location;lat;lon;timestamp;temperature;humidity
74934;DHT22;63499;53.232;7.492;2022-09-21T00:01:04;9.90;99.90
74934;DHT22;63499;53.232;7.492;2022-09-21T00:03:30;9.80;99.90
74934;DHT22;63499;53.232;7.492;2022-09-21T00:06:07;9.80;99.90
74934;DHT22;63499;53.232;7.492;2022-09-21T00:08:34;9.80;99.90
74934;DHT22;63499;53.232;7.492;2022-09-21T00:11:01;9.70;99.90
74934;DHT22;63499;53.232;7.492;2022-09-21T00:13:30;9.70;99.90
74934;DHT22;63499;53.232;7.492;2022-09-21T00:16:00;9.70;99.90
74934;DHT22;63499;53.232;7.492;2022-09-21T00:18:29;9.60;99.90
74934;DHT22;63499;53.232;7.492;2022-09-21T00:20:56;9.60;99.90
74934;DHT22;63499;53.232;7.492;2022-09-21T00:23:22;9.70;99.90
74934;DHT22;63499;53.232;7.492;2022-09-21T00:25:48;9.70;99.90
74934;DHT22;63499;53.232;7.492;2022-09-21T00:28:15;9.60;99.90
74934;DHT22;63499;53.232;7.492;2022-09-21T00:30:41;9.60;99.90
74934;DHT22;63499;53.232;7.492;2022-09-21T00:33:08;9.60;99.90
74934;DHT22;63499;53.232;7.492;2022-09-21T00:35:34;9.60;99.90
74934;DHT22;63499;53.232;7.492;2022-09-21T00:38:02;9.70;99.90
74934;DHT22;63499;53.232;7.492;2022-09-21T00:40:29;9.70;99.90
74934;DHT22;63499;53.232;7.492;2022-09-21T00:43:15;9.70;99.90
74934;DHT22;63499;53.232;7.492;2022-09-21T00:45:43;9.70;99.90
74934;DHT22;63499;53.232;7.492;2022-09-21T00:48:12;9.60;99.90
74934;DHT22;63499;53.232;7.492;2022-09-21T00:50:43;9.60;99.90
74934;DHT22;63499;53.232;7.492;2022-09-21T00:53:11;9.50;99.90
74934;DHT22;63499;53.232;7.492;2022-09-21T00:55:42;9.50;99.90
74934;DHT22;63499;53.232;7.492;2022-09-21T00:58:14;9.50;99.90
74934;DHT22;63499;53.232;7.492;2022-09-21T01:00:45;9.40;99.90
74934;DHT22;63499;53.232;7.492;2022-09-21T01:03:12;9.40;99.90
74934;DHT22;63499;53.232;7.492;2022-09-21T01:05:38;9.40;99.90
74934;DHT22;63499;53.232;7.492;2022-09-21T01:08:06;9.40;99.90
74934;DHT22;63499;53.232;7.492;2022-09-21T01:14:03;9.40;99.90
74934;DHT22;63499;53.232;7.492;2022-09-21T01:17:03;9.40;99.90
74934;DHT22;63499;53.232;7.492;2022-09-21T01:19:38;9.40;99.90
74934;DHT22;63499;53.232;7.492;2022-09-21T01:30:19;9.40;99.90
74934;DHT22;63499;53.232;7.492;2022-09-21T01:35:56;9.40;99.90
74934;DHT22;63499;53.232;7.492;2022-09-21T01:38:48;9.40;99.90
74934;DHT22;63499;53.232;7.492;2022-09-21T01:41:18;9.40;99.90
74934;DHT22;63499;53.232;7.492;2022-09-21T01:43:51;9.40;99.90
74934;DHT22;63499;53.232;7.492;2022-09-21T01:46:22;9.30;99.90
74934;DHT22;63499;53.232;7.492;2022-09-21T01:49:12;9.20;99.90
74934;DHT22;63499;53.232;7.492;2022-09-21T01:51:50;9.20;99.90
74934;DHT22;63499;53.232;7.492;2022-09-21T01:54:25;9.20;99.90
74934;DHT22;63499;53.232;7.492;2022-09-21T01:56:59;9.20;99.90
74934;DHT22;63499;53.232;7.492;2022-09-21T01:59:53;9.10;99.90
74934;DHT22;63499;53.232;7.492;2022-09-21T02:02:40;9.10;99.90
74934;DHT22;63499;53.232;7.492;2022-09-21T02:05:08;9.10;99.90
74934;DHT22;63499;53.232;7.492;2022-09-21T02:07:36;9.10;99.90
74934;DHT22;63499;53.232;7.492;2022-09-21T02:10:06;9.10;99.90
74934;DHT22;63499;53.232;7.492;2022-09-21T02:12:34;9.10;99.90
74934;DHT22;63499;53.232;7.492;2022-09-21T02:15:01;9.00;99.90
74934;DHT22;63499;53.232;7.492;2022-09-21T02:17:39;9.00;99.90
74934;DHT22;63499;53.232;7.492;2022-09-21T02:20:18;9.00;99.90
74934;DHT22;63499;53.232;7.492;2022-09-21T02:27:58;9.00;99.90
74934;DHT22;63499;53.232;7.492;2022-09-21T02:30:27;9.00;99.90
74934;DHT22;63499;53.232;7.492;2022-09-21T02:40:38;9.00;99.90
74934;DHT22;63499;53.232;7.492;2022-09-21T02:43:34;8.90;99.90
74934;DHT22;63499;53.232;7.492;2022-09-21T02:49:09;8.90;99.90
74934;DHT22;63499;53.232;7.492;2022-09-21T02:51:43;8.90;99.90
74934;DHT22;63499;53.232;7.492;2022-09-21T02:54:15;8.90;99.90
74934;DHT22;63499;53.232;7.492;2022-09-21T02:56:43;8.90;99.90
74934;DHT22;63499;53.232;7.492;2022-09-21T02:59:11;8.90;99.90
74934;DHT22;63499;53.232;7.492;2022-09-21T03:01:39;8.90;99.90
74934;DHT22;63499;53.232;7.492;2022-09-21T03:04:06;8.90;99.90
74934;DHT22;63499;53.232;7.492;2022-09-21T03:06:33;8.90;99.90
74934;DHT22;63499;53.232;7.492;2022-09-21T03:08:59;8.90;99.90
74934;DHT22;63499;53.232;7.492;2022-09-21T03:11:25;8.90;99.90
74934;DHT22;63499;53.232;7.492;2022-09-21T03:13:51;8.80;99.90
74934;DHT22;63499;53.232;7.492;2022-09-21T03:16:18;8.80;99.90
74934;DHT22;63499;53.232;7.492;2022-09-21T03:18:44;8.80;99.90
74934;DHT22;63499;53.232;7.492;2022-09-21T03:21:10;8.80;99.90
74934;DHT22;63499;53.232;7.492;2022-09-21T03:23:37;8.80;99.90
74934;DHT22;63499;53.232;7.492;2022-09-21T03:26:04;8.80;99.90
74934;DHT22;63499;53.232;7.492;2022-09-21T03:28:30;8.80;99.90
74934;DHT22;63499;53.232;7.492;2022-09-21T03:30:56;8.80;99.90
74934;DHT22;63499;53.232;7.492;2022-09-21T03:33:26;8.70;99.90
74934;DHT22;63499;53.232;7.492;2022-09-21T03:35:53;8.80;99.90
74934;DHT22;63499;53.232;7.492;2022-09-21T03:38:20;8.70;99.90
74934;DHT22;63499;53.232;7.492;2022-09-21T03:40:47;8.70;99.90
74934;DHT22;63499;53.232;7.492;2022-09-21T03:43:14;8.60;99.90
74934;DHT22;63499;53.232;7.492;2022-09-21T03:45:41;8.60;99.90
74934;DHT22;63499;53.232;7.492;2022-09-21T03:48:08;8.60;99.90
74934;DHT22;63499;53.232;7.492;2022-09-21T03:50:35;8.60;99.90
74934;DHT22;63499;53.232;7.492;2022-09-21T03:53:02;8.60;99.90
74934;DHT22;63499;53.232;7.492;2022-09-21T03:55:28;8.60;99.90
74934;DHT22;63499;53.232;7.492;2022-09-21T03:57:55;8.60;99.90
74934;DHT22;63499;53.232;7.492;2022-09-21T04:00:21;8.50;99.90
74934;DHT22;63499;53.232;7.492;2022-09-21T04:02:47;8.60;99.90
74934;DHT22;63499;53.232;7.492;2022-09-21T04:05:15;8.50;99.90
74934;DHT22;63499;53.232;7.492;2022-09-21T04:07:42;8.50;99.90
74934;DHT22;63499;53.232;7.492;2022-09-21T04:10:13;8.50;99.90
74934;DHT22;63499;53.232;7.492;2022-09-21T04:12:40;8.40;99.90
74934;DHT22;63499;53.232;7.492;2022-09-21T04:15:12;8.40;99.90
74934;DHT22;63499;53.232;7.492;2022-09-21T04:17:39;8.40;99.90
74934;DHT22;63499;53.232;7.492;2022-09-21T04:20:06;8.40;99.90
74934;DHT22;63499;53.232;7.492;2022-09-21T04:22:34;8.40;99.90
74934;DHT22;63499;53.232;7.492;2022-09-21T04:25:02;8.40;99.90
74934;DHT22;63499;53.232;7.492;2022-09-21T04:27:30;8.30;99.90
74934;DHT22;63499;53.232;7.492;2022-09-21T04:29:56;8.30;99.90
74934;DHT22;63499;53.232;7.492;2022-09-21T04:32:24;8.30;99.90
74934;DHT22;63499;53.232;7.492;2022-09-21T04:34:50;8.20;99.90
74934;DHT22;63499;53.232;7.492;2022-09-21T04:37:17;8.20;99.90
74934;DHT22;63499;53.232;7.492;2022-09-21T04:39:43;8.20;99.90
74934;DHT22;63499;53.232;7.492;2022-09-21T04:42:09;8.20;99.90
74934;DHT22;63499;53.232;7.492;2022-09-21T04:44:36;8.20;99.90
74934;DHT22;63499;53.232;7.492;2022-09-21T04:47:02;8.10;99.90
74934;DHT22;63499;53.232;7.492;2022-09-21T04:49:28;8.10;99.90
74934;DHT22;63499;53.232;7.492;2022-09-21T04:51:54;8.10;99.90
74934;DHT22;63499;53.232;7.492;2022-09-21T04:54:21;8.10;99.90
74934;DHT22;63499;53.232;7.492;2022-09-21T04:56:49;8.10;99.90
74934;DHT22;63499;53.232;7.492;2022-09-21T04:59:15;8.00;99.90
74934;DHT22;63499;53.232;7.492;2022-09-21T05:01:41;8.00;99.90
74934;DHT22;63499;53.232;7.492;2022-09-21T05:04:07;8.00;99.90
74934;DHT22;63499;53.232;7.492;2022-09-21T05:06:33;8.00;99.90
74934;DHT22;63499;53.232;7.492;2022-09-21T05:08:59;8.00;99.90
74934;DHT22;63499;53.232;7.492;2022-09-21T05:11:44;8.00;99.90
74934;DHT22;63499;53.232;7.492;2022-09-21T05:14:11;8.00;99.90
74934;DHT22;63499;53.232;7.492;2022-09-21T05:16:38;8.00;99.90
74934;DHT22;63499;53.232;7.492;2022-09-21T05:19:04;7.90;99.90
74934;DHT22;63499;53.232;7.492;2022-09-21T05:21:30;7.90;99.90
74934;DHT22;63499;53.232;7.492;2022-09-21T05:23:57;7.90;99.90
74934;DHT22;63499;53.232;7.492;2022-09-21T05:26:23;7.90;99.90
74934;DHT22;63499;53.232;7.492;2022-09-21T05:28:50;7.90;99.90
74934;DHT22;63499;53.232;7.492;2022-09-21T05:34:01;7.90;99.90
74934;DHT22;63499;53.232;7.492;2022-09-21T05:36:48;7.90;99.90
74934;DHT22;63499;53.232;7.492;2022-09-21T05:39:17;7.80;99.90
74934;DHT22;63499;53.232;7.492;2022-09-21T05:41:44;7.80;99.90
74934;DHT22;63499;53.232;7.492;2022-09-21T05:44:12;7.90;99.90
74934;DHT22;63499;53.232;7.492;2022-09-21T05:46:41;7.80;99.90
74934;DHT22;63499;53.232;7.492;2022-09-21T05:52:15;7.90;99.90
74934;DHT22;63499;53.232;7.492;2022-09-21T05:57:57;8.00;99.90
74934;DHT22;63499;53.232;7.492;2022-09-21T06:00:21;8.00;99.90
74934;DHT22;63499;53.232;7.492;2022-09-21T06:05:48;8.10;99.90
74934;DHT22;63499;53.232;7.492;2022-09-21T06:08:15;8.00;99.90
74934;DHT22;63499;53.232;7.492;2022-09-21T06:10:41;8.10;99.90
74934;DHT22;63499;53.232;7.492;2022-09-21T06:13:07;8.10;99.90
74934;DHT22;63499;53.232;7.492;2022-09-21T06:15:34;8.10;99.90
74934;DHT22;63499;53.232;7.492;2022-09-21T06:18:04;8.10;99.90
74934;DHT22;63499;53.232;7.492;2022-09-21T06:20:31;8.10;99.90
74934;DHT22;63499;53.232;7.492;2022-09-21T06:23:05;8.10;99.90
74934;DHT22;63499;53.232;7.492;2022-09-21T06:25:31;8.10;99.90
74934;DHT22;63499;53.232;7.492;2022-09-21T06:28:05;8.00;99.90
74934;DHT22;63499;53.232;7.492;2022-09-21T06:30:32;8.00;99.90
74934;DHT22;63499;53.232;7.492;2022-09-21T06:33:00;8.10;99.90
74934;DHT22;63499;53.232;7.492;2022-09-21T06:35:31;8.10;99.90
74934;DHT22;63499;53.232;7.492;2022-09-21T06:38:04;8.10;99.90
74934;DHT22;63499;53.232;7.492;2022-09-21T06:40:32;8.20;99.90
74934;DHT22;63499;53.232;7.492;2022-09-21T06:43:01;8.20;99.90
74934;DHT22;63499;53.232;7.492;2022-09-21T06:45:28;8.30;99.90
74934;DHT22;63499;53.232;7.492;2022-09-21T06:47:55;8.30;99.90
74934;DHT22;63499;53.232;7.492;2022-09-21T06:50:28;8.40;99.90
74934;DHT22;63499;53.232;7.492;2022-09-21T06:52:57;8.40;99.90
74934;DHT22;63499;53.232;7.492;2022-09-21T06:55:26;8.40;99.90
74934;DHT22;63499;53.232;7.492;2022-09-21T06:58:00;8.50;99.90
74934;DHT22;63499;53.232;7.492;2022-09-21T07:00:26;8.50;99.90
74934;DHT22;63499;53.232;7.492;2022-09-21T07:02:53;8.60;99.90
74934;DHT22;63499;53.232;7.492;2022-09-21T07:05:19;8.60;99.90
74934;DHT22;63499;53.232;7.492;2022-09-21T07:07:45;8.70;99.90
74934;DHT22;63499;53.232;7.492;2022-09-21T07:10:12;8.90;99.90
74934;DHT22;63499;53.232;7.492;2022-09-21T07:12:38;9.00;99.90
74934;DHT22;63499;53.232;7.492;2022-09-21T07:15:05;9.20;99.90
74934;DHT22;63499;53.232;7.492;2022-09-21T07:17:36;9.30;99.90
74934;DHT22;63499;53.232;7.492;2022-09-21T07:20:04;9.50;99.90
74934;DHT22;63499;53.232;7.492;2022-09-21T07:22:34;9.70;99.90
74934;DHT22;63499;53.232;7.492;2022-09-21T07:25:01;9.90;99.90
74934;DHT22;63499;53.232;7.492;2022-09-21T07:27:28;10.10;99.90
74934;DHT22;63499;53.232;7.492;2022-09-21T07:29:55;10.30;99.90
74934;DHT22;63499;53.232;7.492;2022-09-21T07:34:50;10.80;99.90
74934;DHT22;63499;53.232;7.492;2022-09-21T07:37:22;10.90;99.90
74934;DHT22;63499;53.232;7.492;2022-09-21T07:39:52;11.20;99.90
74934;DHT22;63499;53.232;7.492;2022-09-21T07:42:19;11.30;99.90
74934;DHT22;63499;53.232;7.492;2022-09-21T07:44:47;11.50;99.90
74934;DHT22;63499;53.232;7.492;2022-09-21T07:47:14;11.70;99.90
74934;DHT22;63499;53.232;7.492;2022-09-21T07:49:41;11.90;99.90
74934;DHT22;63499;53.232;7.492;2022-09-21T07:52:08;12.10;99.90
74934;DHT22;63499;53.232;7.492;2022-09-21T07:54:35;12.30;99.90
74934;DHT22;63499;53.232;7.492;2022-09-21T07:57:01;12.50;99.90
74934;DHT22;63499;53.232;7.492;2022-09-21T07:59:46;12.70;99.90
74934;DHT22;63499;53.232;7.492;2022-09-21T08:02:13;12.90;99.90
74934;DHT22;63499;53.232;7.492;2022-09-21T08:04:39;13.10;99.90
74934;DHT22;63499;53.232;7.492;2022-09-21T08:07:05;13.30;99.90
74934;DHT22;63499;53.232;7.492;2022-09-21T08:09:31;13.50;99.90
74934;DHT22;63499;53.232;7.492;2022-09-21T08:11:58;13.70;99.90
74934;DHT22;63499;53.232;7.492;2022-09-21T08:14:32;13.80;99.90
74934;DHT22;63499;53.232;7.492;2022-09-21T08:16:59;14.00;99.90
74934;DHT22;63499;53.232;7.492;2022-09-21T08:19:26;14.10;99.90
74934;DHT22;63499;53.232;7.492;2022-09-21T08:21:53;14.20;99.90
74934;DHT22;63499;53.232;7.492;2022-09-21T08:24:19;14.40;99.90
74934;DHT22;63499;53.232;7.492;2022-09-21T08:26:45;14.60;99.90
74934;DHT22;63499;53.232;7.492;2022-09-21T08:29:12;14.70;99.90
74934;DHT22;63499;53.232;7.492;2022-09-21T08:31:41;14.80;99.90
74934;DHT22;63499;53.232;7.492;2022-09-21T08:34:08;14.90;99.90
74934;DHT22;63499;53.232;7.492;2022-09-21T08:36:34;15.10;99.90
74934;DHT22;63499;53.232;7.492;2022-09-21T08:39:00;15.30;99.90
74934;DHT22;63499;53.232;7.492;2022-09-21T08:44:14;15.30;99.90
74934;DHT22;63499;53.232;7.492;2022-09-21T08:46:45;15.40;99.90
74934;DHT22;63499;53.232;7.492;2022-09-21T08:49:18;15.50;99.90
74934;DHT22;63499;53.232;7.492;2022-09-21T08:51:51;15.80;99.90
74934;DHT22;63499;53.232;7.492;2022-09-21T08:54:34;15.90;99.90
74934;DHT22;63499;53.232;7.492;2022-09-21T08:57:04;15.90;99.90
74934;DHT22;63499;53.232;7.492;2022-09-21T08:59:30;16.10;99.90
74934;DHT22;63499;53.232;7.492;2022-09-21T09:20:35;16.20;99.90
74934;DHT22;63499;53.232;7.492;2022-09-21T09:23:19;16.50;99.90
74934;DHT22;63499;53.232;7.492;2022-09-21T09:25:53;16.80;99.90
74934;DHT22;63499;53.232;7.492;2022-09-21T09:28:39;17.00;99.90
74934;DHT22;63499;53.232;7.492;2022-09-21T09:31:33;17.00;99.90
74934;DHT22;63499;53.232;7.492;2022-09-21T09:34:32;17.30;99.90
74934;DHT22;63499;53.232;7.492;2022-09-21T09:37:16;17.40;99.90
74934;DHT22;63499;53.232;7.492;2022-09-21T09:39:50;17.60;99.90
74934;DHT22;63499;53.232;7.492;2022-09-21T09:42:40;17.80;99.90
74934;DHT22;63499;53.232;7.492;2022-09-21T09:45:22;17.70;99.90
74934;DHT22;63499;53.232;7.492;2022-09-21T09:50:32;17.50;99.90
74934;DHT22;63499;53.232;7.492;2022-09-21T09:53:15;17.70;99.90
74934;DHT22;63499;53.232;7.492;2022-09-21T09:55:50;17.80;99.90
74934;DHT22;63499;53.232;7.492;2022-09-21T10:00:45;18.60;99.90
74934;DHT22;63499;53.232;7.492;2022-09-21T10:03:17;18.40;99.90
74934;DHT22;63499;53.232;7.492;2022-09-21T10:05:44;18.70;99.90
74934;DHT22;63499;53.232;7.492;2022-09-21T10:11:04;19.30;99.90
74934;DHT22;63499;53.232;7.492;2022-09-21T10:13:39;19.50;99.90
74934;DHT22;63499;53.232;7.492;2022-09-21T10:24:36;19.40;99.40
74934;DHT22;63499;53.232;7.492;2022-09-21T10:27:17;19.60;99.40
74934;DHT22;63499;53.232;7.492;2022-09-21T10:29:50;19.90;97.50
74934;DHT22;63499;53.232;7.492;2022-09-21T10:32:27;19.90;96.90
74934;DHT22;63499;53.232;7.492;2022-09-21T10:35:12;19.90;95.70
74934;DHT22;63499;53.232;7.492;2022-09-21T10:37:46;19.30;96.40
74934;DHT22;63499;53.232;7.492;2022-09-21T10:42:45;19.70;96.00
74934;DHT22;63499;53.232;7.492;2022-09-21T10:45:20;19.80;92.80
74934;DHT22;63499;53.232;7.492;2022-09-21T10:47:54;19.60;94.60
74934;DHT22;63499;53.232;7.492;2022-09-21T10:50:29;19.40;93.70
74934;DHT22;63499;53.232;7.492;2022-09-21T10:58:30;19.70;95.00
74934;DHT22;63499;53.232;7.492;2022-09-21T11:01:21;19.70;93.80
74934;DHT22;63499;53.232;7.492;2022-09-21T11:04:13;19.10;93.80
74934;DHT22;63499;53.232;7.492;2022-09-21T11:07:00;19.10;94.20
74934;DHT22;63499;53.232;7.492;2022-09-21T11:12:27;19.60;95.80
74934;DHT22;63499;53.232;7.492;2022-09-21T11:15:14;19.70;94.70
74934;DHT22;63499;53.232;7.492;2022-09-21T11:23:09;20.20;93.30
74934;DHT22;63499;53.232;7.492;2022-09-21T11:25:55;19.90;92.70
74934;DHT22;63499;53.232;7.492;2022-09-21T11:28:42;19.70;92.70
74934;DHT22;63499;53.232;7.492;2022-09-21T11:34:41;20.30;92.70
74934;DHT22;63499;53.232;7.492;2022-09-21T12:22:07;20.70;90.00
74934;DHT22;63499;53.232;7.492;2022-09-21T12:24:40;20.60;90.30
74934;DHT22;63499;53.232;7.492;2022-09-21T12:27:20;20.30;88.00
74934;DHT22;63499;53.232;7.492;2022-09-21T12:29:52;20.50;88.80
74934;DHT22;63499;53.232;7.492;2022-09-21T12:32:32;21.00;89.90
74934;DHT22;63499;53.232;7.492;2022-09-21T12:35:04;20.60;86.90
74934;DHT22;63499;53.232;7.492;2022-09-21T12:37:53;20.90;87.90
74934;DHT22;63499;53.232;7.492;2022-09-21T12:40:51;21.30;89.40
74934;DHT22;63499;53.232;7.492;2022-09-21T12:43:27;20.80;85.00
74934;DHT22;63499;53.232;7.492;2022-09-21T12:46:25;21.10;86.40
74934;DHT22;63499;53.232;7.492;2022-09-21T12:49:13;21.40;86.70
74934;DHT22;63499;53.232;7.492;2022-09-21T12:51:43;22.00;85.80
74934;DHT22;63499;53.232;7.492;2022-09-21T12:59:44;22.30;83.30
74934;DHT22;63499;53.232;7.492;2022-09-21T13:10:21;22.10;77.70
74934;DHT22;63499;53.232;7.492;2022-09-21T13:12:58;22.30;81.20
74934;DHT22;63499;53.232;7.492;2022-09-21T13:15:45;22.60;81.40
74934;DHT22;63499;53.232;7.492;2022-09-21T13:20:52;22.50;99.90
74934;DHT22;63499;53.232;7.492;2022-09-21T13:23:34;22.30;94.80
74934;DHT22;63499;53.232;7.492;2022-09-21T13:26:07;22.60;92.70
74934;DHT22;63499;53.232;7.492;2022-09-21T16:50:10;21.20;73.10
74934;DHT22;63499;53.232;7.492;2022-09-21T16:52:38;21.10;74.90
74934;DHT22;63499;53.232;7.492;2022-09-21T16:55:04;20.80;75.80
74934;DHT22;63499;53.232;7.492;2022-09-21T16:57:32;20.60;76.40
74934;DHT22;63499;53.232;7.492;2022-09-21T17:00:00;20.40;77.30
74934;DHT22;63499;53.232;7.492;2022-09-21T17:02:28;20.30;78.00
74934;DHT22;63499;53.232;7.492;2022-09-21T17:04:57;20.00;78.40
74934;DHT22;63499;53.232;7.492;2022-09-21T17:07:23;19.70;79.30
74934;DHT22;63499;53.232;7.492;2022-09-21T17:09:50;19.50;80.10
74934;DHT22;63499;53.232;7.492;2022-09-21T17:12:17;19.30;81.30
74934;DHT22;63499;53.232;7.492;2022-09-21T17:14:44;19.20;82.10
74934;DHT22;63499;53.232;7.492;2022-09-21T17:17:15;19.10;83.10
74934;DHT22;63499;53.232;7.492;2022-09-21T17:19:43;18.90;83.60
74934;DHT22;63499;53.232;7.492;2022-09-21T17:22:11;18.70;84.00
74934;DHT22;63499;53.232;7.492;2022-09-21T17:24:58;18.60;84.40
74934;DHT22;63499;53.232;7.492;2022-09-21T17:27:30;18.40;85.30
74934;DHT22;63499;53.232;7.492;2022-09-21T17:29:57;18.30;86.10
74934;DHT22;63499;53.232;7.492;2022-09-21T17:32:28;18.10;86.50
74934;DHT22;63499;53.232;7.492;2022-09-21T17:37:50;17.90;89.00
74934;DHT22;63499;53.232;7.492;2022-09-21T17:40:17;17.60;89.90
74934;DHT22;63499;53.232;7.492;2022-09-21T17:42:45;17.50;90.20
74934;DHT22;63499;53.232;7.492;2022-09-21T17:45:24;17.30;90.50
74934;DHT22;63499;53.232;7.492;2022-09-21T17:47:55;17.20;91.20
74934;DHT22;63499;53.232;7.492;2022-09-21T17:50:27;17.00;91.50
74934;DHT22;63499;53.232;7.492;2022-09-21T17:52:54;16.90;92.00
74934;DHT22;63499;53.232;7.492;2022-09-21T17:55:49;16.80;92.30
74934;DHT22;63499;53.232;7.492;2022-09-21T18:03:52;16.40;94.00
74934;DHT22;63499;53.232;7.492;2022-09-21T18:06:22;16.40;93.60
74934;DHT22;63499;53.232;7.492;2022-09-21T18:08:49;16.30;94.20
74934;DHT22;63499;53.232;7.492;2022-09-21T18:17:14;16.20;96.10
74934;DHT22;63499;53.232;7.492;2022-09-21T18:20:15;16.00;96.60
74934;DHT22;63499;53.232;7.492;2022-09-21T18:25:33;15.90;97.40
74934;DHT22;63499;53.232;7.492;2022-09-21T18:30:58;15.90;99.30
74934;DHT22;63499;53.232;7.492;2022-09-21T18:36:35;15.60;99.90
74934;DHT22;63499;53.232;7.492;2022-09-21T18:42:47;15.40;99.90
74934;DHT22;63499;53.232;7.492;2022-09-21T18:44:48;15.30;99.90
74934;DHT22;63499;53.232;7.492;2022-09-21T18:52:38;15.20;99.90
74934;DHT22;63499;53.232;7.492;2022-09-21T18:55:32;15.10;99.90
74934;DHT22;63499;53.232;7.492;2022-09-21T18:58:01;15.10;99.90
74934;DHT22;63499;53.232;7.492;2022-09-21T19:00:29;15.10;99.90
74934;DHT22;63499;53.232;7.492;2022-09-21T19:03:02;15.00;99.90
74934;DHT22;63499;53.232;7.492;2022-09-21T19:05:34;14.90;99.90
74934;DHT22;63499;53.232;7.492;2022-09-21T19:10:51;14.80;99.90
74934;DHT22;63499;53.232;7.492;2022-09-21T19:24:48;14.70;99.90
74934;DHT22;63499;53.232;7.492;2022-09-21T19:27:55;14.70;99.90
74934;DHT22;63499;53.232;7.492;2022-09-21T19:30:24;14.60;99.90
74934;DHT22;63499;53.232;7.492;2022-09-21T19:32:53;14.60;99.90
74934;DHT22;63499;53.232;7.492;2022-09-21T19:35:26;14.40;99.90
74934;DHT22;63499;53.232;7.492;2022-09-21T19:37:58;14.40;99.90
74934;DHT22;63499;53.232;7.492;2022-09-21T19:40:29;14.20;99.90
74934;DHT22;63499;53.232;7.492;2022-09-21T19:43:17;14.20;99.90
74934;DHT22;63499;53.232;7.492;2022-09-21T19:48:41;14.00;99.90
74934;DHT22;63499;53.232;7.492;2022-09-21T19:51:17;13.80;99.90
74934;DHT22;63499;53.232;7.492;2022-09-21T19:53:51;13.80;99.90
74934;DHT22;63499;53.232;7.492;2022-09-21T19:56:45;13.70;99.90
74934;DHT22;63499;53.232;7.492;2022-09-21T19:59:31;13.60;99.90
74934;DHT22;63499;53.232;7.492;2022-09-21T20:02:27;13.50;99.90
74934;DHT22;63499;53.232;7.492;2022-09-21T20:07:53;13.40;99.90
74934;DHT22;63499;53.232;7.492;2022-09-21T20:13:26;13.50;99.90
74934;DHT22;63499;53.232;7.492;2022-09-21T20:18:53;13.50;99.90
74934;DHT22;63499;53.232;7.492;2022-09-21T20:21:30;13.40;99.90
74934;DHT22;63499;53.232;7.492;2022-09-21T20:24:01;13.40;99.90
74934;DHT22;63499;53.232;7.492;2022-09-21T20:26:29;13.30;99.90
74934;DHT22;63499;53.232;7.492;2022-09-21T20:28:59;13.30;99.90
74934;DHT22;63499;53.232;7.492;2022-09-21T20:31:28;13.30;99.90
74934;DHT22;63499;53.232;7.492;2022-09-21T20:33:55;13.20;99.90
74934;DHT22;63499;53.232;7.492;2022-09-21T20:36:23;13.10;99.90
74934;DHT22;63499;53.232;7.492;2022-09-21T20:38:49;12.90;99.90
74934;DHT22;63499;53.232;7.492;2022-09-21T20:41:17;12.80;99.90
74934;DHT22;63499;53.232;7.492;2022-09-21T20:43:44;12.80;99.90
74934;DHT22;63499;53.232;7.492;2022-09-21T20:46:11;12.70;99.90
74934;DHT22;63499;53.232;7.492;2022-09-21T20:48:39;12.60;99.90
74934;DHT22;63499;53.232;7.492;2022-09-21T20:51:10;12.60;99.90
74934;DHT22;63499;53.232;7.492;2022-09-21T20:53:39;12.60;99.90
74934;DHT22;63499;53.232;7.492;2022-09-21T20:56:08;12.60;99.90
74934;DHT22;63499;53.232;7.492;2022-09-21T20:58:35;12.60;99.90
74934;DHT22;63499;53.232;7.492;2022-09-21T21:01:08;12.70;99.90
74934;DHT22;63499;53.232;7.492;2022-09-21T21:03:36;12.60;99.90
74934;DHT22;63499;53.232;7.492;2022-09-21T21:06:12;12.60;99.90
74934;DHT22;63499;53.232;7.492;2022-09-21T21:08:39;12.60;99.90
74934;DHT22;63499;53.232;7.492;2022-09-21T21:11:06;12.50;99.90
74934;DHT22;63499;53.232;7.492;2022-09-21T21:13:33;12.40;99.90
74934;DHT22;63499;53.232;7.492;2022-09-21T21:16:00;12.30;99.90
74934;DHT22;63499;53.232;7.492;2022-09-21T21:18:30;12.30;99.90
74934;DHT22;63499;53.232;7.492;2022-09-21T21:21:02;12.20;99.90
74934;DHT22;63499;53.232;7.492;2022-09-21T21:23:31;12.20;99.90
74934;DHT22;63499;53.232;7.492;2022-09-21T21:26:17;12.20;99.90
74934;DHT22;63499;53.232;7.492;2022-09-21T21:28:44;12.30;99.90
74934;DHT22;63499;53.232;7.492;2022-09-21T21:31:10;12.20;99.90
74934;DHT22;63499;53.232;7.492;2022-09-21T21:33:36;12.10;99.90
74934;DHT22;63499;53.232;7.492;2022-09-21T21:36:04;12.00;99.90
74934;DHT22;63499;53.232;7.492;2022-09-21T21:38:31;12.00;99.90
74934;DHT22;63499;53.232;7.492;2022-09-21T21:40:57;11.90;99.90
74934;DHT22;63499;53.232;7.492;2022-09-21T21:43:23;11.90;99.90
74934;DHT22;63499;53.232;7.492;2022-09-21T21:45:53;11.90;99.90
74934;DHT22;63499;53.232;7.492;2022-09-21T21:48:19;11.90;99.90
74934;DHT22;63499;53.232;7.492;2022-09-21T21:50:48;11.80;99.90
74934;DHT22;63499;53.232;7.492;2022-09-21T21:53:14;11.70;99.90
74934;DHT22;63499;53.232;7.492;2022-09-21T21:55:41;11.70;99.90
74934;DHT22;63499;53.232;7.492;2022-09-21T21:58:08;11.60;99.90
74934;DHT22;63499;53.232;7.492;2022-09-21T22:00:35;11.60;99.90
74934;DHT22;63499;53.232;7.492;2022-09-21T22:03:04;11.70;99.90
74934;DHT22;63499;53.232;7.492;2022-09-21T22:05:32;11.60;99.90
74934;DHT22;63499;53.232;7.492;2022-09-21T22:07:59;11.60;99.90
74934;DHT22;63499;53.232;7.492;2022-09-21T22:10:25;11.50;99.90
74934;DHT22;63499;53.232;7.492;2022-09-21T22:12:51;11.50;99.90
74934;DHT22;63499;53.232;7.492;2022-09-21T22:15:18;11.50;99.90
74934;DHT22;63499;53.232;7.492;2022-09-21T22:17:45;11.50;99.90
74934;DHT22;63499;53.232;7.492;2022-09-21T22:20:11;11.50;99.90
74934;DHT22;63499;53.232;7.492;2022-09-21T22:22:38;11.50;99.90
74934;DHT22;63499;53.232;7.492;2022-09-21T22:25:04;11.50;99.90
74934;DHT22;63499;53.232;7.492;2022-09-21T22:27:31;11.40;99.90
74934;DHT22;63499;53.232;7.492;2022-09-21T22:29:57;11.30;99.90
74934;DHT22;63499;53.232;7.492;2022-09-21T22:32:23;11.30;99.90
74934;DHT22;63499;53.232;7.492;2022-09-21T22:34:50;11.20;99.90
74934;DHT22;63499;53.232;7.492;2022-09-21T22:37:16;11.20;99.90
74934;DHT22;63499;53.232;7.492;2022-09-21T22:39:42;11.20;99.90
74934;DHT22;63499;53.232;7.492;2022-09-21T22:42:11;11.20;99.90
74934;DHT22;63499;53.232;7.492;2022-09-21T22:44:38;11.20;99.90
74934;DHT22;63499;53.232;7.492;2022-09-21T22:47:05;11.20;99.90
74934;DHT22;63499;53.232;7.492;2022-09-21T22:49:31;11.10;99.90
74934;DHT22;63499;53.232;7.492;2022-09-21T22:51:57;11.10;99.90
74934;DHT22;63499;53.232;7.492;2022-09-21T22:54:23;11.20;99.90
74934;DHT22;63499;53.232;7.492;2022-09-21T22:56:49;11.10;99.90
74934;DHT22;63499;53.232;7.492;2022-09-21T22:59:15;11.10;99.90
74934;DHT22;63499;53.232;7.492;2022-09-21T23:01:41;11.00;99.90
74934;DHT22;63499;53.232;7.492;2022-09-21T23:04:10;11.00;99.90